sensor_id;sensor_type;location;lat;lon;timestamp;temperature;humidity
51011;DHT22;37038;50.182;8.624;2023-05-07T00:01:19;16.50;99.90
51011;DHT22;37038;50.182;8.624;2023-05-07T00:04:06;16.70;99.90
51011;DHT22;37038;50.182;8.624;2023-05-07T00:06:55;16.60;99.90
51011;DHT22;37038;50.182;8.624;2023-05-07T00:09:43;16.70;99.90
51011;DHT22;37038;50.182;8.624;2023-05-07T00:12:31;16.80;99.90
51011;DHT22;37038;50.182;8.624;2023-05-07T00:15:21;16.80;99.90
51011;DHT22;37038;50.182;8.624;2023-05-07T00:18:08;16.70;99.90
51011;DHT22;37038;50.182;8.624;2023-05-07T00:20:56;16.70;99.90
51011;DHT22;37038;50.182;8.624;2023-05-07T00:23:44;16.60;99.90
51011;DHT22;37038;50.182;8.624;2023-05-07T00:26:31;16.40;99.90
51011;DHT22;37038;50.182;8.624;2023-05-07T00:29:19;16.40;99.90
51011;DHT22;37038;50.182;8.624;2023-05-07T00:32:08;16.40;99.90
51011;DHT22;37038;50.182;8.624;2023-05-07T00:34:56;16.50;99.90
51011;DHT22;37038;50.182;8.624;2023-05-07T00:37:44;16.70;99.90
51011;DHT22;37038;50.182;8.624;2023-05-07T00:40:31;16.60;99.90
51011;DHT22;37038;50.182;8.624;2023-05-07T00:43:19;16.40;99.90
51011;DHT22;37038;50.182;8.624;2023-05-07T00:46:07;16.50;99.90
51011;DHT22;37038;50.182;8.624;2023-05-07T00:48:55;16.30;99.90
51011;DHT22;37038;50.182;8.624;2023-05-07T00:51:43;16.20;99.90
51011;DHT22;37038;50.182;8.624;2023-05-07T00:54:31;16.30;99.90
51011;DHT22;37038;50.182;8.624;2023-05-07T00:57:21;16.40;99.90
51011;DHT22;37038;50.182;8.624;2023-05-07T01:00:09;16.40;99.90
51011;DHT22;37038;50.182;8.624;2023-05-07T01:02:58;16.40;99.90
51011;DHT22;37038;50.182;8.624;2023-05-07T01:05:46;16.50;99.90
51011;DHT22;37038;50.182;8.624;2023-05-07T01:08:35;16.50;99.90
51011;DHT22;37038;50.182;8.624;2023-05-07T01:11:24;16.40;99.90
51011;DHT22;37038;50.182;8.624;2023-05-07T01:14:12;16.50;99.90
51011;DHT22;37038;50.182;8.624;2023-05-07T01:17:03;16.50;99.90
51011;DHT22;37038;50.182;8.624;2023-05-07T01:19:51;16.40;99.90
51011;DHT22;37038;50.182;8.624;2023-05-07T01:22:40;16.40;99.90
51011;DHT22;37038;50.182;8.624;2023-05-07T01:25:28;16.40;99.90
51011;DHT22;37038;50.182;8.624;2023-05-07T01:28:20;16.40;99.90
51011;DHT22;37038;50.182;8.624;2023-05-07T01:31:08;16.50;99.90
51011;DHT22;37038;50.182;8.624;2023-05-07T01:33:57;16.50;99.90
51011;DHT22;37038;50.182;8.624;2023-05-07T01:36:47;16.40;99.90
51011;DHT22;37038;50.182;8.624;2023-05-07T01:39:37;16.50;99.90
51011;DHT22;37038;50.182;8.624;2023-05-07T01:42:26;16.40;99.90
51011;DHT22;37038;50.182;8.624;2023-05-07T01:45:14;16.30;99.90
51011;DHT22;37038;50.182;8.624;2023-05-07T01:48:02;16.40;99.90
51011;DHT22;37038;50.182;8.624;2023-05-07T01:50:51;16.20;99.90
51011;DHT22;37038;50.182;8.624;2023-05-07T01:53:39;16.20;99.90
51011;DHT22;37038;50.182;8.624;2023-05-07T01:56:28;16.20;99.90
51011;DHT22;37038;50.182;8.624;2023-05-07T01:59:15;16.20;99.90
51011;DHT22;37038;50.182;8.624;2023-05-07T02:02:03;16.20;99.90
51011;DHT22;37038;50.182;8.624;2023-05-07T02:04:50;16.10;99.90
51011;DHT22;37038;50.182;8.624;2023-05-07T02:07:38;16.10;99.90
51011;DHT22;37038;50.182;8.624;2023-05-07T02:10:26;16.10;99.90
51011;DHT22;37038;50.182;8.624;2023-05-07T02:13:14;16.10;99.90
51011;DHT22;37038;50.182;8.624;2023-05-07T02:16:02;16.20;99.90
51011;DHT22;37038;50.182;8.624;2023-05-07T02:18:51;16.30;99.90
51011;DHT22;37038;50.182;8.624;2023-05-07T02:21:39;16.20;99.90
51011;DHT22;37038;50.182;8.624;2023-05-07T02:24:26;16.20;99.90
51011;DHT22;37038;50.182;8.624;2023-05-07T02:27:14;16.20;99.90
51011;DHT22;37038;50.182;8.624;2023-05-07T02:30:02;16.20;99.90
51011;DHT22;37038;50.182;8.624;2023-05-07T02:32:50;16.40;99.90
51011;DHT22;37038;50.182;8.624;2023-05-07T02:35:38;16.50;99.90
51011;DHT22;37038;50.182;8.624;2023-05-07T02:38:25;16.50;99.90
51011;DHT22;37038;50.182;8.624;2023-05-07T02:41:13;16.40;99.90
51011;DHT22;37038;50.182;8.624;2023-05-07T02:44:01;16.30;99.90
51011;DHT22;37038;50.182;8.624;2023-05-07T02:46:48;16.30;99.90
51011;DHT22;37038;50.182;8.624;2023-05-07T02:49:36;16.30;99.90
51011;DHT22;37038;50.182;8.624;2023-05-07T02:52:23;16.20;99.90
51011;DHT22;37038;50.182;8.624;2023-05-07T02:55:11;16.30;99.90
51011;DHT22;37038;50.182;8.624;2023-05-07T02:57:59;16.30;99.90
51011;DHT22;37038;50.182;8.624;2023-05-07T03:00:47;16.50;99.90
51011;DHT22;37038;50.182;8.624;2023-05-07T03:03:35;16.30;99.90
51011;DHT22;37038;50.182;8.624;2023-05-07T03:06:22;16.30;99.90
51011;DHT22;37038;50.182;8.624;2023-05-07T03:09:10;16.10;99.90
51011;DHT22;37038;50.182;8.624;2023-05-07T03:11:58;16.10;99.90
51011;DHT22;37038;50.182;8.624;2023-05-07T03:14:46;16.20;99.90
51011;DHT22;37038;50.182;8.624;2023-05-07T03:17:33;16.30;99.90
51011;DHT22;37038;50.182;8.624;2023-05-07T03:20:21;16.30;99.90
51011;DHT22;37038;50.182;8.624;2023-05-07T03:23:09;16.20;99.90
51011;DHT22;37038;50.182;8.624;2023-05-07T03:25:57;16.20;99.90
51011;DHT22;37038;50.182;8.624;2023-05-07T03:28:44;16.20;99.90
51011;DHT22;37038;50.182;8.624;2023-05-07T03:31:32;16.20;99.90
51011;DHT22;37038;50.182;8.624;2023-05-07T03:34:20;16.30;99.90
51011;DHT22;37038;50.182;8.624;2023-05-07T03:37:10;16.20;99.90
51011;DHT22;37038;50.182;8.624;2023-05-07T03:39:58;16.20;99.90
51011;DHT22;37038;50.182;8.624;2023-05-07T03:42:45;16.30;99.90
51011;DHT22;37038;50.182;8.624;2023-05-07T03:45:33;16.20;99.90
51011;DHT22;37038;50.182;8.624;2023-05-07T03:48:21;16.30;99.90
51011;DHT22;37038;50.182;8.624;2023-05-07T03:51:08;16.30;99.90
51011;DHT22;37038;50.182;8.624;2023-05-07T03:53:56;16.20;99.90
51011;DHT22;37038;50.182;8.624;2023-05-07T03:56:44;16.10;99.90
51011;DHT22;37038;50.182;8.624;2023-05-07T03:59:32;16.10;99.90
51011;DHT22;37038;50.182;8.624;2023-05-07T04:02:19;16.10;99.90
51011;DHT22;37038;50.182;8.624;2023-05-07T04:05:07;16.00;99.90
51011;DHT22;37038;50.182;8.624;2023-05-07T04:07:55;15.80;99.90
51011;DHT22;37038;50.182;8.624;2023-05-07T04:10:42;15.60;99.90
51011;DHT22;37038;50.182;8.624;2023-05-07T04:13:30;15.50;99.90
51011;DHT22;37038;50.182;8.624;2023-05-07T04:16:18;15.60;99.90
51011;DHT22;37038;50.182;8.624;2023-05-07T04:19:06;15.80;99.90
51011;DHT22;37038;50.182;8.624;2023-05-07T04:21:53;15.90;99.90
51011;DHT22;37038;50.182;8.624;2023-05-07T04:24:41;15.80;99.90
51011;DHT22;37038;50.182;8.624;2023-05-07T04:27:28;15.80;99.90
51011;DHT22;37038;50.182;8.624;2023-05-07T04:30:16;16.00;99.90
51011;DHT22;37038;50.182;8.624;2023-05-07T04:33:04;16.20;99.90
51011;DHT22;37038;50.182;8.624;2023-05-07T04:35:52;16.20;99.90
51011;DHT22;37038;50.182;8.624;2023-05-07T04:38:39;16.20;99.90
51011;DHT22;37038;50.182;8.624;2023-05-07T04:41:30;16.20;99.90
51011;DHT22;37038;50.182;8.624;2023-05-07T04:44:17;16.20;99.90
51011;DHT22;37038;50.182;8.624;2023-05-07T04:47:05;16.20;99.90
51011;DHT22;37038;50.182;8.624;2023-05-07T04:49:53;16.30;99.90
51011;DHT22;37038;50.182;8.624;2023-05-07T04:52:47;16.40;99.90
51011;DHT22;37038;50.182;8.624;2023-05-07T04:55:34;16.30;99.90
51011;DHT22;37038;50.182;8.624;2023-05-07T04:58:22;16.10;99.90
51011;DHT22;37038;50.182;8.624;2023-05-07T05:01:10;16.10;99.90
51011;DHT22;37038;50.182;8.624;2023-05-07T05:03:58;16.10;99.90
51011;DHT22;37038;50.182;8.624;2023-05-07T05:06:48;16.20;99.90
51011;DHT22;37038;50.182;8.624;2023-05-07T05:09:35;16.50;99.90
51011;DHT22;37038;50.182;8.624;2023-05-07T05:12:23;16.60;99.90
51011;DHT22;37038;50.182;8.624;2023-05-07T05:15:13;16.80;99.90
51011;DHT22;37038;50.182;8.624;2023-05-07T05:18:01;17.00;99.90
51011;DHT22;37038;50.182;8.624;2023-05-07T05:20:49;17.00;99.90
51011;DHT22;37038;50.182;8.624;2023-05-07T05:23:38;17.00;99.90
51011;DHT22;37038;50.182;8.624;2023-05-07T05:26:28;17.10;99.90
51011;DHT22;37038;50.182;8.624;2023-05-07T05:29:16;17.40;99.90
51011;DHT22;37038;50.182;8.624;2023-05-07T05:32:09;17.40;99.90
51011;DHT22;37038;50.182;8.624;2023-05-07T05:34:57;17.20;99.90
51011;DHT22;37038;50.182;8.624;2023-05-07T05:37:45;17.30;99.90
51011;DHT22;37038;50.182;8.624;2023-05-07T05:40:33;17.60;99.90
51011;DHT22;37038;50.182;8.624;2023-05-07T05:43:21;17.80;99.90
51011;DHT22;37038;50.182;8.624;2023-05-07T05:46:09;18.00;99.90
51011;DHT22;37038;50.182;8.624;2023-05-07T05:49:02;18.00;99.90
51011;DHT22;37038;50.182;8.624;2023-05-07T05:51:50;18.10;99.90
51011;DHT22;37038;50.182;8.624;2023-05-07T05:54:42;18.30;99.90
51011;DHT22;37038;50.182;8.624;2023-05-07T05:57:30;18.60;99.90
51011;DHT22;37038;50.182;8.624;2023-05-07T06:00:19;18.90;99.90
51011;DHT22;37038;50.182;8.624;2023-05-07T06:03:09;18.80;99.90
51011;DHT22;37038;50.182;8.624;2023-05-07T06:05:58;18.40;99.90
51011;DHT22;37038;50.182;8.624;2023-05-07T06:08:45;18.60;99.90
51011;DHT22;37038;50.182;8.624;2023-05-07T06:11:40;18.40;99.90
51011;DHT22;37038;50.182;8.624;2023-05-07T06:14:30;18.60;99.90
51011;DHT22;37038;50.182;8.624;2023-05-07T06:17:18;18.70;99.90
51011;DHT22;37038;50.182;8.624;2023-05-07T06:20:08;18.80;99.90
51011;DHT22;37038;50.182;8.624;2023-05-07T06:22:56;19.10;99.90
51011;DHT22;37038;50.182;8.624;2023-05-07T06:25:50;18.90;99.90
51011;DHT22;37038;50.182;8.624;2023-05-07T06:28:38;19.20;99.90
51011;DHT22;37038;50.182;8.624;2023-05-07T06:31:30;19.80;99.90
51011;DHT22;37038;50.182;8.624;2023-05-07T06:34:24;20.20;99.90
51011;DHT22;37038;50.182;8.624;2023-05-07T06:37:11;20.20;99.90
51011;DHT22;37038;50.182;8.624;2023-05-07T06:39:59;21.00;99.90
51011;DHT22;37038;50.182;8.624;2023-05-07T06:42:49;22.80;99.90
51011;DHT22;37038;50.182;8.624;2023-05-07T06:45:46;24.50;99.90
51011;DHT22;37038;50.182;8.624;2023-05-07T06:48:51;24.60;99.90
51011;DHT22;37038;50.182;8.624;2023-05-07T06:51:42;24.40;98.50
51011;DHT22;37038;50.182;8.624;2023-05-07T06:54:35;24.60;97.40
51011;DHT22;37038;50.182;8.624;2023-05-07T06:57:25;24.60;95.60
51011;DHT22;37038;50.182;8.624;2023-05-07T07:00:13;24.90;96.40
51011;DHT22;37038;50.182;8.624;2023-05-07T07:03:03;25.50;94.10
51011;DHT22;37038;50.182;8.624;2023-05-07T07:05:56;26.00;91.00
51011;DHT22;37038;50.182;8.624;2023-05-07T07:08:46;26.10;90.90
51011;DHT22;37038;50.182;8.624;2023-05-07T07:11:38;26.20;90.50
51011;DHT22;37038;50.182;8.624;2023-05-07T07:14:28;26.10;89.60
51011;DHT22;37038;50.182;8.624;2023-05-07T07:17:18;26.20;84.40
51011;DHT22;37038;50.182;8.624;2023-05-07T07:20:10;24.90;88.30
51011;DHT22;37038;50.182;8.624;2023-05-07T07:23:00;24.60;90.40
51011;DHT22;37038;50.182;8.624;2023-05-07T07:25:57;24.70;90.20
51011;DHT22;37038;50.182;8.624;2023-05-07T07:28:58;24.50;91.10
51011;DHT22;37038;50.182;8.624;2023-05-07T07:31:49;25.40;90.00
51011;DHT22;37038;50.182;8.624;2023-05-07T07:34:40;25.80;83.80
51011;DHT22;37038;50.182;8.624;2023-05-07T07:37:29;24.90;88.50
51011;DHT22;37038;50.182;8.624;2023-05-07T07:40:17;23.40;91.50
51011;DHT22;37038;50.182;8.624;2023-05-07T07:43:05;22.90;92.80
51011;DHT22;37038;50.182;8.624;2023-05-07T07:45:55;23.00;93.40
51011;DHT22;37038;50.182;8.624;2023-05-07T07:48:43;23.00;93.00
51011;DHT22;37038;50.182;8.624;2023-05-07T07:51:34;22.70;94.20
51011;DHT22;37038;50.182;8.624;2023-05-07T07:54:25;23.60;94.30
51011;DHT22;37038;50.182;8.624;2023-05-07T07:57:14;23.90;92.50
51011;DHT22;37038;50.182;8.624;2023-05-07T08:00:02;23.80;92.40
51011;DHT22;37038;50.182;8.624;2023-05-07T08:02:56;23.60;92.40
51011;DHT22;37038;50.182;8.624;2023-05-07T08:05:44;23.30;92.70
51011;DHT22;37038;50.182;8.624;2023-05-07T08:08:42;22.80;94.20
51011;DHT22;37038;50.182;8.624;2023-05-07T08:11:30;23.00;95.10
51011;DHT22;37038;50.182;8.624;2023-05-07T08:14:20;23.70;94.00
51011;DHT22;37038;50.182;8.624;2023-05-07T08:17:09;23.90;93.60
51011;DHT22;37038;50.182;8.624;2023-05-07T08:19:59;24.20;93.50
51011;DHT22;37038;50.182;8.624;2023-05-07T08:23:02;23.30;93.90
51011;DHT22;37038;50.182;8.624;2023-05-07T08:30:04;24.10;94.00
51011;DHT22;37038;50.182;8.624;2023-05-07T08:32:58;22.50;94.90
51011;DHT22;37038;50.182;8.624;2023-05-07T08:36:02;22.20;96.50
51011;DHT22;37038;50.182;8.624;2023-05-07T08:38:52;22.10;96.80
51011;DHT22;37038;50.182;8.624;2023-05-07T08:41:40;22.60;96.70
51011;DHT22;37038;50.182;8.624;2023-05-07T08:44:28;22.90;96.90
51011;DHT22;37038;50.182;8.624;2023-05-07T08:47:25;22.50;96.10
51011;DHT22;37038;50.182;8.624;2023-05-07T08:50:21;22.10;95.50
51011;DHT22;37038;50.182;8.624;2023-05-07T08:53:10;22.20;95.90
51011;DHT22;37038;50.182;8.624;2023-05-07T08:56:04;22.50;95.70
51011;DHT22;37038;50.182;8.624;2023-05-07T08:59:08;22.40;95.80
51011;DHT22;37038;50.182;8.624;2023-05-07T09:01:56;22.90;94.40
51011;DHT22;37038;50.182;8.624;2023-05-07T09:04:46;23.60;94.90
51011;DHT22;37038;50.182;8.624;2023-05-07T09:07:34;25.00;93.30
51011;DHT22;37038;50.182;8.624;2023-05-07T09:10:22;24.60;91.40
51011;DHT22;37038;50.182;8.624;2023-05-07T09:13:14;23.80;91.80
51011;DHT22;37038;50.182;8.624;2023-05-07T09:16:15;23.90;92.10
51011;DHT22;37038;50.182;8.624;2023-05-07T09:19:06;24.80;90.80
51011;DHT22;37038;50.182;8.624;2023-05-07T09:22:04;25.00;90.80
51011;DHT22;37038;50.182;8.624;2023-05-07T09:24:57;25.80;85.00
51011;DHT22;37038;50.182;8.624;2023-05-07T09:27:47;24.90;90.50
51011;DHT22;37038;50.182;8.624;2023-05-07T09:30:38;25.50;84.50
51011;DHT22;37038;50.182;8.624;2023-05-07T09:33:30;25.10;83.40
51011;DHT22;37038;50.182;8.624;2023-05-07T09:36:18;24.10;88.30
51011;DHT22;37038;50.182;8.624;2023-05-07T09:39:08;24.10;88.50
51011;DHT22;37038;50.182;8.624;2023-05-07T09:41:56;23.70;88.00
51011;DHT22;37038;50.182;8.624;2023-05-07T09:44:54;23.20;90.30
51011;DHT22;37038;50.182;8.624;2023-05-07T09:47:43;22.60;90.80
51011;DHT22;37038;50.182;8.624;2023-05-07T09:50:48;22.20;91.70
51011;DHT22;37038;50.182;8.624;2023-05-07T09:53:39;22.00;91.90
51011;DHT22;37038;50.182;8.624;2023-05-07T09:56:32;22.80;92.40
51011;DHT22;37038;50.182;8.624;2023-05-07T09:59:27;23.50;91.40
51011;DHT22;37038;50.182;8.624;2023-05-07T10:02:22;25.40;86.70
51011;DHT22;37038;50.182;8.624;2023-05-07T10:05:21;25.50;82.40
51011;DHT22;37038;50.182;8.624;2023-05-07T10:08:13;26.00;78.50
51011;DHT22;37038;50.182;8.624;2023-05-07T10:11:07;25.30;82.20
51011;DHT22;37038;50.182;8.624;2023-05-07T10:13:58;25.90;81.90
51011;DHT22;37038;50.182;8.624;2023-05-07T10:16:54;26.50;78.60
51011;DHT22;37038;50.182;8.624;2023-05-07T10:19:47;28.00;69.50
51011;DHT22;37038;50.182;8.624;2023-05-07T10:22:45;27.90;67.40
51011;DHT22;37038;50.182;8.624;2023-05-07T10:25:37;26.90;71.20
51011;DHT22;37038;50.182;8.624;2023-05-07T10:28:29;27.50;66.20
51011;DHT22;37038;50.182;8.624;2023-05-07T10:31:58;27.70;62.90
51011;DHT22;37038;50.182;8.624;2023-05-07T10:34:53;27.70;64.20
51011;DHT22;37038;50.182;8.624;2023-05-07T10:37:46;29.20;58.10
51011;DHT22;37038;50.182;8.624;2023-05-07T10:40:37;29.80;51.50
51011;DHT22;37038;50.182;8.624;2023-05-07T10:43:41;27.00;57.20
51011;DHT22;37038;50.182;8.624;2023-05-07T10:46:32;28.10;55.20
51011;DHT22;37038;50.182;8.624;2023-05-07T10:49:25;28.90;53.80
51011;DHT22;37038;50.182;8.624;2023-05-07T10:52:20;30.00;52.30
51011;DHT22;37038;50.182;8.624;2023-05-07T10:55:19;29.80;47.70
51011;DHT22;37038;50.182;8.624;2023-05-07T10:58:25;26.60;50.90
51011;DHT22;37038;50.182;8.624;2023-05-07T11:01:49;27.50;51.10
51011;DHT22;37038;50.182;8.624;2023-05-07T11:04:42;28.10;50.40
51011;DHT22;37038;50.182;8.624;2023-05-07T11:07:33;29.60;47.30
51011;DHT22;37038;50.182;8.624;2023-05-07T11:13:43;31.00;44.60
51011;DHT22;37038;50.182;8.624;2023-05-07T11:16:35;31.60;38.30
51011;DHT22;37038;50.182;8.624;2023-05-07T11:19:54;29.30;43.50
51011;DHT22;37038;50.182;8.624;2023-05-07T11:22:43;29.30;44.60
51011;DHT22;37038;50.182;8.624;2023-05-07T11:25:34;29.70;44.20
51011;DHT22;37038;50.182;8.624;2023-05-07T11:28:30;29.20;41.00
51011;DHT22;37038;50.182;8.624;2023-05-07T11:31:27;29.00;43.70
51011;DHT22;37038;50.182;8.624;2023-05-07T11:34:22;28.60;41.00
51011;DHT22;37038;50.182;8.624;2023-05-07T11:37:18;28.90;42.70
51011;DHT22;37038;50.182;8.624;2023-05-07T11:40:08;28.00;42.10
51011;DHT22;37038;50.182;8.624;2023-05-07T11:43:10;27.20;43.30
51011;DHT22;37038;50.182;8.624;2023-05-07T11:46:12;28.50;43.80
51011;DHT22;37038;50.182;8.624;2023-05-07T11:49:02;31.00;40.90
51011;DHT22;37038;50.182;8.624;2023-05-07T11:51:52;31.90;34.30
51011;DHT22;37038;50.182;8.624;2023-05-07T11:55:03;31.60;33.40
51011;DHT22;37038;50.182;8.624;2023-05-07T11:58:01;31.40;33.30
51011;DHT22;37038;50.182;8.624;2023-05-07T12:01:10;32.50;29.70
51011;DHT22;37038;50.182;8.624;2023-05-07T12:04:04;27.50;35.50
51011;DHT22;37038;50.182;8.624;2023-05-07T12:07:00;27.80;36.90
51011;DHT22;37038;50.182;8.624;2023-05-07T12:09:54;29.60;36.00
51011;DHT22;37038;50.182;8.624;2023-05-07T12:12:56;29.70;36.30
51011;DHT22;37038;50.182;8.624;2023-05-07T12:15:46;29.00;35.20
51011;DHT22;37038;50.182;8.624;2023-05-07T12:18:38;27.70;38.50
51011;DHT22;37038;50.182;8.624;2023-05-07T12:21:31;28.90;36.80
51011;DHT22;37038;50.182;8.624;2023-05-07T12:24:21;29.50;36.20
51011;DHT22;37038;50.182;8.624;2023-05-07T12:27:19;30.70;36.00
51011;DHT22;37038;50.182;8.624;2023-05-07T12:30:10;32.00;31.40
51011;DHT22;37038;50.182;8.624;2023-05-07T12:32:59;32.10;32.60
51011;DHT22;37038;50.182;8.624;2023-05-07T12:35:49;31.30;29.90
51011;DHT22;37038;50.182;8.624;2023-05-07T12:38:40;30.80;28.30
51011;DHT22;37038;50.182;8.624;2023-05-07T12:41:30;30.70;30.80
51011;DHT22;37038;50.182;8.624;2023-05-07T12:44:31;30.60;30.80
51011;DHT22;37038;50.182;8.624;2023-05-07T12:47:22;30.70;30.60
51011;DHT22;37038;50.182;8.624;2023-05-07T12:50:14;31.30;29.20
51011;DHT22;37038;50.182;8.624;2023-05-07T12:53:07;31.10;27.90
51011;DHT22;37038;50.182;8.624;2023-05-07T12:56:01;29.70;30.00
51011;DHT22;37038;50.182;8.624;2023-05-07T12:58:51;29.20;31.80
51011;DHT22;37038;50.182;8.624;2023-05-07T13:01:45;30.40;30.20
51011;DHT22;37038;50.182;8.624;2023-05-07T13:04:37;32.20;27.60
51011;DHT22;37038;50.182;8.624;2023-05-07T13:07:26;31.40;26.40
51011;DHT22;37038;50.182;8.624;2023-05-07T13:10:19;30.90;26.50
51011;DHT22;37038;50.182;8.624;2023-05-07T13:13:09;29.90;30.80
51011;DHT22;37038;50.182;8.624;2023-05-07T13:15:59;30.50;28.40
51011;DHT22;37038;50.182;8.624;2023-05-07T13:18:49;28.40;30.00
51011;DHT22;37038;50.182;8.624;2023-05-07T13:21:43;29.60;32.20
51011;DHT22;37038;50.182;8.624;2023-05-07T13:24:33;30.00;30.60
51011;DHT22;37038;50.182;8.624;2023-05-07T13:27:30;29.40;30.00
51011;DHT22;37038;50.182;8.624;2023-05-07T13:30:30;29.40;30.60
51011;DHT22;37038;50.182;8.624;2023-05-07T13:33:20;29.60;30.30
51011;DHT22;37038;50.182;8.624;2023-05-07T13:36:10;30.10;31.40
51011;DHT22;37038;50.182;8.624;2023-05-07T13:39:00;29.80;30.80
51011;DHT22;37038;50.182;8.624;2023-05-07T13:41:50;30.60;29.20
51011;DHT22;37038;50.182;8.624;2023-05-07T13:44:39;29.80;29.00
51011;DHT22;37038;50.182;8.624;2023-05-07T13:47:29;28.90;30.50
51011;DHT22;37038;50.182;8.624;2023-05-07T13:50:21;28.20;32.00
51011;DHT22;37038;50.182;8.624;2023-05-07T13:53:11;29.00;33.40
51011;DHT22;37038;50.182;8.624;2023-05-07T13:55:59;29.40;30.40
51011;DHT22;37038;50.182;8.624;2023-05-07T13:58:50;30.60;29.20
51011;DHT22;37038;50.182;8.624;2023-05-07T14:01:49;31.10;27.80
51011;DHT22;37038;50.182;8.624;2023-05-07T14:04:39;30.70;27.50
51011;DHT22;37038;50.182;8.624;2023-05-07T14:07:29;29.80;28.70
51011;DHT22;37038;50.182;8.624;2023-05-07T14:10:20;30.20;28.40
51011;DHT22;37038;50.182;8.624;2023-05-07T14:13:10;29.80;28.10
51011;DHT22;37038;50.182;8.624;2023-05-07T14:16:01;29.70;29.90
51011;DHT22;37038;50.182;8.624;2023-05-07T14:18:56;29.80;28.50
51011;DHT22;37038;50.182;8.624;2023-05-07T14:21:47;28.90;28.30
51011;DHT22;37038;50.182;8.624;2023-05-07T14:24:37;28.70;28.90
51011;DHT22;37038;50.182;8.624;2023-05-07T14:27:33;28.00;29.60
51011;DHT22;37038;50.182;8.624;2023-05-07T14:30:33;28.20;29.70
51011;DHT22;37038;50.182;8.624;2023-05-07T14:33:22;28.60;31.90
51011;DHT22;37038;50.182;8.624;2023-05-07T14:36:13;28.60;30.50
51011;DHT22;37038;50.182;8.624;2023-05-07T14:39:02;27.60;32.00
51011;DHT22;37038;50.182;8.624;2023-05-07T14:41:53;27.70;32.30
51011;DHT22;37038;50.182;8.624;2023-05-07T14:44:44;27.40;31.10
51011;DHT22;37038;50.182;8.624;2023-05-07T14:47:35;29.00;32.20
51011;DHT22;37038;50.182;8.624;2023-05-07T14:50:24;30.90;29.20
51011;DHT22;37038;50.182;8.624;2023-05-07T14:53:12;30.40;28.50
51011;DHT22;37038;50.182;8.624;2023-05-07T14:56:02;28.00;26.70
51011;DHT22;37038;50.182;8.624;2023-05-07T14:58:55;27.20;30.50
51011;DHT22;37038;50.182;8.624;2023-05-07T15:01:47;28.50;30.70
51011;DHT22;37038;50.182;8.624;2023-05-07T15:04:39;28.70;30.40
51011;DHT22;37038;50.182;8.624;2023-05-07T15:07:36;28.40;30.40
51011;DHT22;37038;50.182;8.624;2023-05-07T15:10:26;28.10;31.60
51011;DHT22;37038;50.182;8.624;2023-05-07T15:13:16;28.10;29.80
51011;DHT22;37038;50.182;8.624;2023-05-07T15:16:14;27.90;30.40
51011;DHT22;37038;50.182;8.624;2023-05-07T15:19:08;28.30;28.60
51011;DHT22;37038;50.182;8.624;2023-05-07T15:22:01;27.50;30.30
51011;DHT22;37038;50.182;8.624;2023-05-07T15:25:08;26.80;30.80
51011;DHT22;37038;50.182;8.624;2023-05-07T15:28:08;26.50;30.30
51011;DHT22;37038;50.182;8.624;2023-05-07T15:31:02;26.20;30.60
51011;DHT22;37038;50.182;8.624;2023-05-07T15:33:50;25.90;32.40
51011;DHT22;37038;50.182;8.624;2023-05-07T15:36:42;25.40;33.40
51011;DHT22;37038;50.182;8.624;2023-05-07T15:39:31;25.50;33.20
51011;DHT22;37038;50.182;8.624;2023-05-07T15:42:20;25.60;33.20
51011;DHT22;37038;50.182;8.624;2023-05-07T15:45:08;25.60;34.70
51011;DHT22;37038;50.182;8.624;2023-05-07T15:47:57;25.70;34.40
51011;DHT22;37038;50.182;8.624;2023-05-07T15:50:47;25.50;35.10
51011;DHT22;37038;50.182;8.624;2023-05-07T15:53:38;25.60;35.80
51011;DHT22;37038;50.182;8.624;2023-05-07T15:56:28;25.60;34.00
51011;DHT22;37038;50.182;8.624;2023-05-07T15:59:19;25.40;34.40
51011;DHT22;37038;50.182;8.624;2023-05-07T16:02:08;25.20;34.60
51011;DHT22;37038;50.182;8.624;2023-05-07T16:04:57;25.20;34.20
51011;DHT22;37038;50.182;8.624;2023-05-07T16:07:45;25.10;34.20
51011;DHT22;37038;50.182;8.624;2023-05-07T16:10:34;24.60;34.30
51011;DHT22;37038;50.182;8.624;2023-05-07T16:13:25;24.40;35.80
51011;DHT22;37038;50.182;8.624;2023-05-07T16:16:16;24.30;36.60
51011;DHT22;37038;50.182;8.624;2023-05-07T16:19:04;24.30;36.60
51011;DHT22;37038;50.182;8.624;2023-05-07T16:21:54;24.10;36.60
51011;DHT22;37038;50.182;8.624;2023-05-07T16:24:42;24.10;36.80
51011;DHT22;37038;50.182;8.624;2023-05-07T16:27:30;23.90;37.60
51011;DHT22;37038;50.182;8.624;2023-05-07T16:30:18;23.90;37.90
51011;DHT22;37038;50.182;8.624;2023-05-07T16:33:06;23.70;38.60
51011;DHT22;37038;50.182;8.624;2023-05-07T16:35:54;23.60;38.90
51011;DHT22;37038;50.182;8.624;2023-05-07T16:38:43;23.60;39.80
51011;DHT22;37038;50.182;8.624;2023-05-07T16:41:32;23.60;41.70
51011;DHT22;37038;50.182;8.624;2023-05-07T16:44:19;23.80;43.30
51011;DHT22;37038;50.182;8.624;2023-05-07T16:47:07;23.70;43.30
51011;DHT22;37038;50.182;8.624;2023-05-07T16:49:55;23.60;43.70
51011;DHT22;37038;50.182;8.624;2023-05-07T16:52:42;23.40;44.40
51011;DHT22;37038;50.182;8.624;2023-05-07T16:55:30;23.40;44.50
51011;DHT22;37038;50.182;8.624;2023-05-07T16:58:24;23.50;44.60
51011;DHT22;37038;50.182;8.624;2023-05-07T17:01:13;23.30;46.00
51011;DHT22;37038;50.182;8.624;2023-05-07T17:04:02;23.40;45.80
51011;DHT22;37038;50.182;8.624;2023-05-07T17:06:51;23.50;46.50
51011;DHT22;37038;50.182;8.624;2023-05-07T17:09:39;23.20;46.00
51011;DHT22;37038;50.182;8.624;2023-05-07T17:12:26;23.30;46.30
51011;DHT22;37038;50.182;8.624;2023-05-07T17:15:18;22.90;46.30
51011;DHT22;37038;50.182;8.624;2023-05-07T17:18:08;22.20;48.10
51011;DHT22;37038;50.182;8.624;2023-05-07T17:20:56;20.70;89.90
51011;DHT22;37038;50.182;8.624;2023-05-07T17:23:46;19.40;99.90
51011;DHT22;37038;50.182;8.624;2023-05-07T17:26:34;18.60;99.90
51011;DHT22;37038;50.182;8.624;2023-05-07T17:29:24;18.10;99.90
51011;DHT22;37038;50.182;8.624;2023-05-07T17:32:12;17.80;99.90
51011;DHT22;37038;50.182;8.624;2023-05-07T17:35:00;17.60;99.90
51011;DHT22;37038;50.182;8.624;2023-05-07T17:37:48;17.50;99.90
51011;DHT22;37038;50.182;8.624;2023-05-07T17:40:39;17.50;99.90
51011;DHT22;37038;50.182;8.624;2023-05-07T17:43:27;17.10;99.90
51011;DHT22;37038;50.182;8.624;2023-05-07T17:46:14;17.00;99.90
51011;DHT22;37038;50.182;8.624;2023-05-07T17:49:02;17.10;99.90
51011;DHT22;37038;50.182;8.624;2023-05-07T17:51:50;17.10;99.90
51011;DHT22;37038;50.182;8.624;2023-05-07T17:54:42;17.10;99.90
51011;DHT22;37038;50.182;8.624;2023-05-07T17:57:30;17.20;99.90
51011;DHT22;37038;50.182;8.624;2023-05-07T18:00:18;17.10;99.90
51011;DHT22;37038;50.182;8.624;2023-05-07T18:03:07;17.10;99.90
51011;DHT22;37038;50.182;8.624;2023-05-07T18:05:55;17.10;99.90